Herbert C Jackson — WL3972 — position and weather

sailwx.info

Track history (hours):
 
Tides and Currents Weather Stations Pressure Air Temp Water Temp Dewpoint Dewpoint Depression Visibility Wind Speed Wind Dir Waves Ship Positions

Herbert C Jackson

Owner: THE INTERLAKE STEAMSHIP COMPANY, Middleburg Heights, OH. More information available from US FCC via Universal Licensing System and Coast Guard Vessel Documentation Center.

Last reported at 2018-Jan-12 15:00 UTC. Time now 2018-Jan-21 08:47 UTC.
Position N 42°18' W 083°06'.
Warning: this ship's position is 8 days out of date.

Length 239 m; draft 7.2 m.

Type: Cargo ship. MMSI: 366904930.

Wind from 320 at 21 knots

Barometer 1010.1 mb
Air temperature -1.8 ° C
Water temperature 1.8 ° C

Date/timePositionNaut miles runAvg speedWind from/ knotsBaromVisibWave heightAir tempDewpointWater temp
2018-Jan-12 15:00N 42°18' W 083°06'0 0.0 320 / 211010.1 -1.8 1.8
2018-Jan-12 14:00N 42°18' W 083°06'0 0.0 330 / 221009.1 0.8 1.9
2018-Jan-12 13:00N 42°18' W 083°06'4 4.4 330 / 141008.4 1.6 7.5
2018-Jan-12 12:00N 42°18' W 083°12'0 0.0 310 / 141006.7 5.5 5.8
2018-Jan-12 11:00N 42°18' W 083°12'0 0.0 300 / 91005.4 7.0 5.8
2018-Jan-12 10:00N 42°18' W 083°12'0 0.0 300 / 81004.7 10.7 6.1
2018-Jan-12 09:00N 42°18' W 083°12'0 0.0 300 / 71004.7 12.5 5.9
2018-Jan-12 08:00N 42°18' W 083°12'0 0.0 180 / 41005.0 12.2 6.5
2018-Jan-12 07:00N 42°18' W 083°12'0 0.0 160 / 51004.7 12.4 6.7
2018-Jan-12 06:00N 42°18' W 083°12'0 0.0 190 / 61005.4 12.9 6.3
2018-Jan-12 05:00N 42°18' W 083°12'0 0.0 180 / 71005.7 13.0 6.6
2018-Jan-12 04:00N 42°18' W 083°12'0 0.0 150 / 61006.0 12.5 7.9
2018-Jan-12 03:00N 42°18' W 083°12'0 0.0 160 / 71007.0 13.3 6.5
2018-Jan-12 02:00N 42°18' W 083°12'0 0.0 160 / 101007.4 12.3 6.6
2018-Jan-12 01:00N 42°18' W 083°12'0 0.0 160 / 121008.4 11.4 7.2
2018-Jan-12 00:00N 42°18' W 083°12'0 0.0 180 / 71009.1 11.3 4.7
2018-Jan-11 23:00N 42°18' W 083°12'0 0.0 170 / 121009.1 11.2 5.3
2018-Jan-11 22:00N 42°18' W 083°12'4 4.4 180 / 91009.4 11.6 6.4
2018-Jan-11 21:00N 42°18' W 083°06'0 0.0 170 / 41010.1 9.8 6.9
2018-Jan-11 20:00N 42°18' W 083°06'4 4.4 170 / 181009.8 10.9 0.7
2018-Jan-11 19:00N 42°18' W 083°00'0 0.0 180 / 151010.8 12.8 0.6
2018-Jan-11 18:00N 42°18' W 083°00'7 7.5 180 / 171011.8 12.0 1.1
2018-Jan-11 17:00N 42°24' W 082°54'1110.7 180 / 251012.1 10.8 0.6
2018-Jan-11 16:00N 42°30' W 082°42'7 7.5 170 / 251012.5 7.0 0.4
2018-Jan-11 15:00N 42°36' W 082°36'7 7.4 180 / 311013.5 8.9 0.2
2018-Jan-11 14:00N 42°42' W 082°30'6 6.0 180 / 171013.3 7.6 0.2
2018-Jan-11 13:00N 42°48' W 082°30'1312.8 160 / 151013.3 8.7 0.3
2018-Jan-11 12:00N 43°00' W 082°24'6 6.0 170 / 161013.0 8.9 0.9
2018-Jan-11 11:00N 43°06' W 082°24'6 6.0 160 / 201012.0 6.3 0.3
2018-Jan-11 10:00N 43°12' W 082°24'0 0.0 160 / 201012.3 3.9 0.4
2018-Jan-11 09:00N 43°12' W 082°24'0 0.0 160 / 201012.3 4.5 0.4
2018-Jan-11 08:00N 43°12' W 082°24'0 0.0 160 / 201012.7 4.5 0.6
2018-Jan-11 07:00N 43°12' W 082°24'0 0.0 170 / 201012.0 4.8 0.3
2018-Jan-11 06:00N 43°12' W 082°24'0 0.0 170 / 201012.0 4.4 0.5
2018-Jan-11 05:00N 43°12' W 082°24'0 0.0 160 / 181012.3 4.4 0.4
2018-Jan-11 04:00N 43°12' W 082°24'0 0.0 160 / 211012.3 4.6 0.3
2018-Jan-11 03:00N 43°12' W 082°24'0 0.0 170 / 221012.3 4.2 0.7
2018-Jan-11 02:00N 43°12' W 082°24'0 0.0 170 / 231012.3 4.3 0.2
2018-Jan-11 01:00N 43°12' W 082°24'0 0.0 170 / 221012.7 3.7 0.2
2018-Jan-11 00:00N 43°12' W 082°24'0 0.0 180 / 231013.0 3.8 0.4
2018-Jan-10 23:00N 43°12' W 082°24'0 0.0 170 / 201013.0 2.8 0.5
2018-Jan-10 22:00N 43°12' W 082°24'6 6.0 160 / 231012.3 2.5 0.3
2018-Jan-10 21:00N 43°18' W 082°24'6 6.0 180 / 191013.3 2.3 0.4
2018-Jan-10 20:00N 43°12' W 082°24'0 0.0 180 / 151013.7 2.1 0.3
2018-Jan-10 19:00N 43°12' W 082°24'0 0.0 180 / 191013.7 1.2 0.7
2018-Jan-10 18:00N 43°12' W 082°24'6 6.0 160 / 191015.0 0.5 0.2
2018-Jan-10 17:00N 43°18' W 082°24'0 0.0 160 / 221016.4 -0.2 0.2
2018-Jan-10 16:00N 43°18' W 082°24'7 7.4 160 / 271016.7 -0.5 0.2
2018-Jan-10 15:00N 43°24' W 082°30'0 0.0 150 / 241018.1 -1.5 0.3
2018-Jan-10 14:00N 43°24' W 082°30'0 0.0 160 / 221019.4 -1.3 0.6
2018-Jan-10 13:00N 43°24' W 082°30'0 0.0 150 / 241019.4 -1.9 0.2
2018-Jan-10 12:00N 43°24' W 082°30'0 0.0 150 / 241020.4 -2.0 0.5
2018-Jan-10 11:00N 43°24' W 082°30'0 0.0 160 / 201021.5 -2.1 0.5
2018-Jan-10 10:00N 43°24' W 082°30'0 0.0 160 / 201022.1 -2.1 0.4
2018-Jan-10 09:00N 43°24' W 082°30'0 0.0 160 / 191023.2 -1.6 0.3
2018-Jan-10 08:00N 43°24' W 082°30'0 0.0 150 / 201023.8 -1.4 0.5
2018-Jan-10 07:00N 43°24' W 082°30'0 0.0 170 / 221024.5 -1.7 0.3
2018-Jan-10 06:00N 43°24' W 082°30'0 0.0 160 / 171025.5 -1.6 0.5
2018-Jan-10 05:00N 43°24' W 082°30'0 0.0 170 / 191025.9 -1.9 0.3
2018-Jan-10 04:00N 43°24' W 082°30'0 0.0 160 / 151026.5 -1.7 0.4
2018-Jan-10 03:00N 43°24' W 082°30'0 0.0 140 / 171025.9 -1.6 0.7
2018-Jan-10 02:00N 43°24' W 082°30'0 0.0 140 / 131026.2 -1.5 0.4
2018-Jan-10 01:00N 43°24' W 082°30'0 0.0 130 / 121026.5 -1.5 0.3
2018-Jan-10 00:00N 43°24' W 082°30'0 0.0 120 / 91026.5 -1.3 0.4
2018-Jan-09 23:00N 43°24' W 082°30'0 0.0 100 / 61026.5 -1.5 0.4
2018-Jan-09 22:00N 43°24' W 082°30'0 0.0 100 / 61026.5 -1.6 0.4
2018-Jan-09 21:00N 43°24' W 082°30'0 0.0 080 / 61025.9 -1.6 0.3
2018-Jan-09 20:00N 43°24' W 082°30'0 0.0 350 / 31025.2 -0.9 0.4
2018-Jan-09 19:00N 43°24' W 082°30'0 0.0 300 / 81025.2 -1.5 0.3
2018-Jan-09 18:00N 43°24' W 082°30'0 0.0 300 / 101025.2 -1.8 0.3
2018-Jan-09 17:00N 43°24' W 082°30'0 0.0 280 / 101025.5 -1.9 0.3
2018-Jan-09 16:00N 43°24' W 082°30'0 0.0 260 / 101025.5 -2.4 0.3
2018-Jan-09 15:00N 43°24' W 082°30'0 0.0 270 / 101024.8 -2.7 0.3
2018-Jan-09 14:00N 43°24' W 082°30'0 0.0 270 / 121023.8 -3.5 0.3
2018-Jan-09 13:00N 43°24' W 082°30'4 4.4 270 / 111022.8 -3.4 0.7
2018-Jan-09 12:00N 43°24' W 082°24'1212.0 280 / 131021.8 -2.8 0.3
2018-Jan-09 11:00N 43°36' W 082°24'1212.0 280 / 131020.8 -1.9 1.6
2018-Jan-09 10:00N 43°48' W 082°24'1312.8 310 / 141019.8 -1.1 2.1
2018-Jan-09 09:00N 44°00' W 082°30'1312.8 330 / 191018.8 -1.1 2.6
2018-Jan-09 08:00N 44°12' W 082°36'1414.2 330 / 191018.1 -1.3 1.3
2018-Jan-09 07:00N 44°18' W 082°54'1514.7 330 / 221017.4 -1.5 1.3
2018-Jan-09 06:00N 44°30' W 083°06'1212.0 320 / 161016.4 -0.8 0.4
2018-Jan-09 05:00N 44°42' W 083°06'1212.0 320 / 221015.4 -1.2 1.0
2018-Jan-09 04:00N 44°54' W 083°06'1212.0 310 / 231013.7 -0.7 2.1
2018-Jan-09 03:00N 45°06' W 083°06'1312.7 300 / 231012.3 -0.4 0.9
2018-Jan-09 02:00N 45°18' W 083°12'1010.3 260 / 161011.3 0.2 2.4
2018-Jan-09 01:00N 45°24' W 083°24'1414.0 290 / 241010.6 1.2 2.7
2018-Jan-09 00:00N 45°30' W 083°42'1414.0 290 / 271010.3 0.8 2.8
2018-Jan-08 23:00N 45°36' W 084°00'1312.7 270 / 231009.3 0.5 1.9
2018-Jan-08 22:00N 45°48' W 084°06'1010.3 260 / 301005.5 0.4 2.1
2018-Jan-08 21:00N 45°54' W 083°54'1312.7 250 / 311003.9 -0.0 0.9
2018-Jan-08 20:00N 46°06' W 084°00'7 7.3 230 / 181005.5 -1.8 0.3
2018-Jan-08 19:00N 46°12' W 084°06'7 7.3 230 / 161004.9 -1.6 0.3
2018-Jan-08 18:00N 46°18' W 084°12'6 6.0 240 / 71005.2 -1.8 0.2
2018-Jan-08 17:00N 46°24' W 084°12'0 0.0 230 / 151004.5 -2.2 0.2
2018-Jan-08 16:00N 46°24' W 084°12'7 7.3 230 / 141005.2 -2.7 0.6
2018-Jan-08 15:00N 46°30' W 084°18'0 0.0 220 / 81004.5 -3.3 0.3
2018-Jan-08 14:00N 46°30' W 084°18'0 0.0 240 / 81004.9 -3.4 0.8
2018-Jan-08 13:00N 46°30' W 084°18'0 0.0 240 / 101004.9 -3.7 0.5
2018-Jan-08 12:00N 46°30' W 084°18'0 0.0 240 / 81004.9 -4.3 0.4
2018-Jan-08 11:00N 46°30' W 084°18'0 0.0 260 / 71004.9 -4.9 0.5
2018-Jan-08 10:00N 46°30' W 084°18'0 0.0 270 / 41004.5 -5.2 0.4
2018-Jan-08 09:00N 46°30' W 084°18'0 0.0 140 / 11005.2 -5.5 0.5
2018-Jan-08 08:00N 46°30' W 084°18'0 0.0 110 / 11005.5 -5.9 0.3
2018-Jan-08 07:00N 46°30' W 084°18'0 0.0 120 / 41005.5 -6.2 0.3
2018-Jan-08 06:00N 46°30' W 084°18'0 0.0 060 / 21006.2 -6.2 0.4
2018-Jan-08 05:00N 46°30' W 084°18'0 0.0 090 / 31006.6 -5.8 0.7
2018-Jan-08 04:00N 46°30' W 084°18'0 0.0 110 / 51007.2 -5.9 0.4
2018-Jan-08 03:00N 46°30' W 084°18'0 0.0 160 / 31007.6 -5.8 0.7
2018-Jan-08 02:00N 46°30' W 084°18'0 0.0 130 / 31007.9 -5.8 0.7
2018-Jan-08 01:00N 46°30' W 084°18'4 4.1 160 / 21008.6 -6.0 0.2
2018-Jan-08 00:00N 46°30' W 084°24'4 4.1 210 / 21009.1 -5.9 0.2
2018-Jan-07 23:00N 46°30' W 084°30'4 4.1 310 / 41009.1 -5.8 0.2
2018-Jan-07 22:00N 46°30' W 084°36'0 0.0 250 / 181008.5 -5.5 0.3
2018-Jan-07 21:00N 46°30' W 084°36'0 0.0 240 / 171008.5 -5.5 0.2
2018-Jan-07 20:00N 46°30' W 084°36'0 0.0 240 / 201008.8 -5.5 0.2
2018-Jan-07 19:00N 46°30' W 084°36'0 0.0 240 / 211008.8 -5.2 0.5
2018-Jan-07 18:00N 46°30' W 084°36'0 0.0 250 / 211009.5 -5.2 0.3
2018-Jan-07 17:00N 46°30' W 084°36'4 4.1 230 / 201010.5 -4.5 0.3
2018-Jan-07 16:00N 46°30' W 084°42'0 0.0 130 / 151011.9 -7.3 0.2
2018-Jan-07 15:00N 46°30' W 084°42'0 0.0 150 / 161012.2 -7.9 0.6
2018-Jan-07 14:00N 46°30' W 084°42'0 0.0 140 / 221012.5 -8.6 0.6
2018-Jan-07 13:00N 46°30' W 084°42'0 0.0 140 / 211014.2 -9.3 0.3
2018-Jan-07 12:00N 46°30' W 084°42'0 0.0 140 / 191015.9 -9.9 0.3
2018-Jan-07 11:00N 46°30' W 084°42'0 0.0 140 / 171017.3 -10.0 0.3
2018-Jan-07 10:00N 46°30' W 084°42'0 0.0 150 / 191017.9 -10.7 0.3
2018-Jan-07 09:00N 46°30' W 084°42'0 0.0 140 / 221019.0 -11.1 0.2
2018-Jan-07 08:00N 46°30' W 084°42'0 0.0 120 / 241019.6 -12.9 0.5
2018-Jan-07 07:00N 46°30' W 084°42'0 0.0 110 / 241021.0 -14.1 0.3
2018-Jan-07 06:00N 46°30' W 084°42'0 0.0 110 / 261022.4 -15.3 0.6
2018-Jan-07 05:00N 46°30' W 084°42'6 6.0 110 / 251024.0 -15.7 0.2
2018-Jan-07 04:00N 46°36' W 084°42'0 0.0 120 / 261025.1 -16.0 0.3
2018-Jan-07 03:00N 46°36' W 084°42'0 0.0 130 / 211027.1 -16.3 0.3
2018-Jan-07 02:00N 46°36' W 084°42'6 6.0 130 / 171028.4 -17.3 0.2
2018-Jan-07 01:00N 46°30' W 084°42'0 0.0 120 / 141029.8 -17.3 0.3
2018-Jan-07 00:00N 46°30' W 084°42'7 7.3 190 / 121030.8 -16.3 0.3
2018-Jan-06 23:00N 46°36' W 084°48'1514.6 190 / 151030.1 -15.4 0.4
2018-Jan-06 22:00N 46°48' W 085°00'1413.7 190 / 141030.1 -14.8 0.3
2018-Jan-06 21:00N 46°54' W 085°18'8 8.2 110 / 131029.8 -14.3 0.8
2018-Jan-06 20:00N 46°54' W 085°30'8113.5 180 / 41030.8 -13.3 2.6
2018-Jan-06 14:00N 47°18' W 087°24'1312.7 360 / 111032.5 -13.1 1.9
2018-Jan-06 13:00N 47°06' W 087°30'6 6.0 320 / 181031.8 -13.3 1.0
2018-Jan-06 12:00N 47°00' W 087°30'1312.7 320 / 171032.2 -13.4 1.5
2018-Jan-06 11:00N 46°48' W 087°36'1010.2 310 / 181031.8 -13.6 1.5
2018-Jan-06 10:00N 46°42' W 087°24'6 6.0 340 / 221030.5 -12.2 1.5
2018-Jan-06 09:00N 46°36' W 087°24'0 0.0 290 / 101031.8 -14.8 0.4
2018-Jan-06 08:00N 46°36' W 087°24'0 0.0 310 / 111031.5 -14.7 0.5
2018-Jan-06 07:00N 46°36' W 087°24'0 0.0 310 / 81030.8 -13.0 0.5
2018-Jan-06 06:00N 46°36' W 087°24'0 0.0 290 / 81030.5 -13.1 0.7
2018-Jan-06 05:00N 46°36' W 087°24'0 0.0 300 / 81030.1 -13.4 0.8
2018-Jan-06 04:00N 46°36' W 087°24'0 0.0 350 / 61030.1 -13.0 0.7
2018-Jan-06 03:00N 46°36' W 087°24'0 0.0 320 / 81030.1 -13.0 0.4
2018-Jan-06 02:00N 46°36' W 087°24'0 0.0 290 / 121029.8 -14.8 0.6
2018-Jan-06 01:00N 46°36' W 087°24'0 0.0 300 / 101029.8 -15.0 0.4
2018-Jan-06 00:00N 46°36' W 087°24'0 0.0 300 / 131029.8 -15.3 0.7
2018-Jan-05 23:00N 46°36' W 087°24'0 0.0 280 / 111029.8 -15.3 0.8
2018-Jan-05 22:00N 46°36' W 087°24'0 0.0 310 / 101029.8 -14.9 0.3
2018-Jan-05 21:00N 46°36' W 087°24'0 0.0 300 / 121029.1 -14.8 0.3
2018-Jan-05 20:00N 46°36' W 087°24'0 0.0 300 / 141029.1 -14.6 0.6
2018-Jan-05 19:00N 46°36' W 087°24'0 0.0 330 / 151028.4 -13.8 0.7
2018-Jan-05 18:00N 46°36' W 087°24'0 0.0 310 / 101028.4 -13.5 0.5
2018-Jan-05 17:00N 46°36' W 087°24'0 0.0 310 / 91028.8 -13.7 0.5
2018-Jan-05 16:00N 46°36' W 087°24'0 0.0 030 / 31028.4 -13.3 0.8
2018-Jan-05 15:00N 46°36' W 087°24'0 0.0 360 / 121027.4 -14.2 0.4
2018-Jan-05 14:00N 46°36' W 087°24'0 0.0 350 / 121026.8 -14.1 0.5
2018-Jan-05 13:00N 46°36' W 087°24'0 0.0 020 / 111026.4 -14.3 0.6
2018-Jan-05 12:00N 46°36' W 087°24'0 0.0 360 / 81025.7 -13.9 0.5
2018-Jan-05 11:00N 46°36' W 087°24'0 0.0 010 / 91025.4 -13.6 0.6
2018-Jan-05 10:00N 46°36' W 087°24'0 0.0 030 / 131025.1 -14.1 0.6
2018-Jan-05 09:00N 46°36' W 087°24'0 0.0 340 / 81025.1 -13.4 0.7
2018-Jan-05 08:00N 46°36' W 087°24'0 0.0 260 / 131025.1 -14.8 0.6
2018-Jan-05 07:00N 46°36' W 087°24'0 0.0 340 / 81024.4 -13.1 0.6
2018-Jan-05 06:00N 46°36' W 087°24'0 0.0 1024.4 -13.3 1.1
2018-Jan-05 05:00N 46°36' W 087°24'0 0.0 300 / 81024.4 -14.1 0.7
2018-Jan-05 04:00N 46°36' W 087°24'0 0.0 280 / 91024.4 -13.8 0.8
2018-Jan-05 03:00N 46°36' W 087°24'0 0.0 310 / 101024.7 -14.5 0.8
2018-Jan-05 02:00N 46°36' W 087°24'0 0.0 280 / 121024.7 -14.6 1.2
2018-Jan-05 01:00N 46°36' W 087°24'0 0.0 280 / 101024.7 -14.8 1.1
2018-Jan-05 00:00N 46°36' W 087°24'0 0.0 300 / 111025.1 -14.7 0.8
2018-Jan-04 23:00N 46°36' W 087°24'0 0.0 310 / 111025.1 -13.7 1.1
2018-Jan-04 22:00N 46°36' W 087°24'0 0.0 290 / 91025.1 -14.3 0.8
2018-Jan-04 21:00N 46°36' W 087°24'0 0.0 280 / 101025.1 -13.7 0.8
2018-Jan-04 20:00N 46°36' W 087°24'0 0.0 290 / 121024.7 -13.6 0.9
2018-Jan-04 19:00N 46°36' W 087°24'0 0.0 340 / 91024.4 -13.2 1.0
2018-Jan-04 18:00N 46°36' W 087°24'7 7.3 340 / 131024.0 -12.7 0.6
2018-Jan-04 17:00N 46°42' W 087°18'1818.0 340 / 171025.1 -12.9 2.2
2018-Jan-04 16:00N 47°00' W 087°18'1212.0 340 / 191025.7 -14.0 1.6
2018-Jan-04 15:00N 47°12' W 087°18'1212.0 1026.1 -14.7 2.2
2018-Jan-04 14:00N 47°24' W 087°18'1818.0 010 / 141026.1 -15.9 2.9
2018-Jan-04 13:00N 47°42' W 087°18'1212.1 020 / 141026.1 -16.4 2.7
2018-Jan-04 12:00N 47°42' W 087°00'1212.1 320 / 291024.7 -16.5 2.9
2018-Jan-04 11:00N 47°42' W 086°42'7510.7 020 / 271024.4 -17.4 3.0
2018-Jan-04 04:00N 47°12' W 085°00'1312.7 360 / 221019.0 -20.8 2.7
2018-Jan-04 03:00N 47°00' W 084°54'1212.0 010 / 201017.3 -17.2 1.2
2018-Jan-04 02:00N 46°48' W 084°54'1312.7 340 / 291015.6 -15.4 0.4
2018-Jan-04 01:00N 46°36' W 085°00'0 0.0 1015.6 -13.3 0.6
2018-Jan-04 00:00N 46°36' W 085°00'0 0.0 360 / 271014.6 -12.1 0.7
2018-Jan-03 23:00N 46°36' W 085°00'0 0.0 340 / 231014.9 -12.1 1.0
2018-Jan-03 22:00N 46°36' W 085°00'0 0.0 320 / 271013.2 -11.6 0.8
2018-Jan-03 21:00N 46°36' W 085°00'0 0.0 330 / 301011.9 -11.0 0.6
2018-Jan-03 20:00N 46°36' W 085°00'0 0.0 320 / 281011.2 -10.9 0.7
2018-Jan-03 19:00N 46°36' W 085°00'0 0.0 330 / 281010.2 -11.3 0.7
2018-Jan-03 18:00N 46°36' W 085°00'0 0.0 320 / 291009.5 -10.9 0.5
2018-Jan-03 17:00N 46°36' W 085°00'0 0.0 320 / 271009.5 -9.7 0.4
2018-Jan-03 16:00N 46°36' W 085°00'0 0.0 320 / 281008.8 -9.1 0.5
2018-Jan-03 15:00N 46°36' W 085°00'6 6.0 320 / 291007.5 -7.9 0.5
2018-Jan-03 14:00N 46°42' W 085°00'0 0.0 230 / 91007.5 -8.6 0.5
2018-Jan-03 13:00N 46°42' W 085°00'0 0.0 250 / 171007.5 -9.4 0.8
2018-Jan-03 12:00N 46°42' W 085°00'0 0.0 220 / 171007.8 -10.4 0.6
2018-Jan-03 11:00N 46°42' W 085°00'0 0.0 220 / 171007.8 -10.0 0.5
2018-Jan-03 10:00N 46°42' W 085°00'6 6.0 210 / 191007.8 -10.6 0.5
2018-Jan-03 09:00N 46°36' W 085°00'6 6.0 220 / 181008.1 -10.0 0.5
2018-Jan-03 08:00N 46°42' W 085°00'0 0.0 230 / 191008.1 -10.3 0.5
2018-Jan-03 07:00N 46°42' W 085°00'0 0.0 210 / 191008.5 -10.4 0.5
2018-Jan-03 06:00N 46°42' W 085°00'0 0.0 230 / 191008.8 -10.5 0.6
2018-Jan-03 05:00N 46°42' W 085°00'0 0.0 220 / 181009.5 -10.6 0.6
2018-Jan-03 04:00N 46°42' W 085°00'0 0.0 210 / 181010.2 -10.6 0.6
2018-Jan-03 03:00N 46°42' W 085°00'0 0.0 230 / 181010.2 -10.3 0.7
2018-Jan-03 02:00N 46°42' W 085°00'0 0.0 230 / 201010.5 -10.6 0.9
2018-Jan-03 01:00N 46°42' W 085°00'0 0.0 220 / 211011.5 -9.8 1.0
2018-Jan-03 00:00N 46°42' W 085°00'0 0.0 220 / 201011.9 -10.0 1.0
2018-Jan-02 23:00N 46°42' W 085°00'0 0.0 220 / 211012.5 -10.3 1.0
2018-Jan-02 22:00N 46°42' W 085°00'0 0.0 200 / 191013.2 -9.5 0.9
2018-Jan-02 21:00N 46°42' W 085°00'6 6.0 210 / 211013.2 -9.8 0.7
2018-Jan-02 20:00N 46°36' W 085°00'0 0.0 230 / 221013.9 -9.8 0.8
2018-Jan-02 19:00N 46°36' W 085°00'6 6.0 220 / 221014.210.8 -9.6 0.7
2018-Jan-02 18:00N 46°42' W 085°00'0 0.0 230 / 271014.2 -10.3 0.6
2018-Jan-02 17:00N 46°42' W 085°00'6 6.0 230 / 251015.2 -10.8 0.7
2018-Jan-02 16:00N 46°36' W 085°00'6 6.0 240 / 251016.3 -11.5 0.9
2018-Jan-02 15:00N 46°42' W 085°00'   230 / 261016.6 -11.8 0.8
Track history (hours):
 
Tides and Currents Weather Stations Pressure Air Temp Water Temp Dewpoint Dewpoint Depression Visibility Wind Speed Wind Dir Waves Ship Positions

Herbert C Jackson

Owner: THE INTERLAKE STEAMSHIP COMPANY, Middleburg Heights, OH. More information available from US FCC via Universal Licensing System and Coast Guard Vessel Documentation Center.

Last reported at 2018-Jan-12 15:00 UTC. Time now 2018-Jan-21 08:47 UTC.
Position N 42°18' W 083°06'.
Warning: this ship's position is 8 days out of date.

Length 239 m; draft 7.2 m.

Type: Cargo ship. MMSI: 366904930.

Wind from 320 at 21 knots

Barometer 1010.1 mb
Air temperature -1.8 ° C
Water temperature 1.8 ° C

Date/timePositionNaut miles runAvg speedWind from/ knotsBaromVisibWave heightAir tempDewpointWater temp
2018-Jan-12 15:00N 42°18' W 083°06'0 0.0 320 / 211010.1 -1.8 1.8
2018-Jan-12 14:00N 42°18' W 083°06'0 0.0 330 / 221009.1 0.8 1.9
2018-Jan-12 13:00N 42°18' W 083°06'4 4.4 330 / 141008.4 1.6 7.5
2018-Jan-12 12:00N 42°18' W 083°12'0 0.0 310 / 141006.7 5.5 5.8
2018-Jan-12 11:00N 42°18' W 083°12'0 0.0 300 / 91005.4 7.0 5.8
2018-Jan-12 10:00N 42°18' W 083°12'0 0.0 300 / 81004.7 10.7 6.1
2018-Jan-12 09:00N 42°18' W 083°12'0 0.0 300 / 71004.7 12.5 5.9
2018-Jan-12 08:00N 42°18' W 083°12'0 0.0 180 / 41005.0 12.2 6.5
2018-Jan-12 07:00N 42°18' W 083°12'0 0.0 160 / 51004.7 12.4 6.7
2018-Jan-12 06:00N 42°18' W 083°12'0 0.0 190 / 61005.4 12.9 6.3
2018-Jan-12 05:00N 42°18' W 083°12'0 0.0 180 / 71005.7 13.0 6.6
2018-Jan-12 04:00N 42°18' W 083°12'0 0.0 150 / 61006.0 12.5 7.9
2018-Jan-12 03:00N 42°18' W 083°12'0 0.0 160 / 71007.0 13.3 6.5
2018-Jan-12 02:00N 42°18' W 083°12'0 0.0 160 / 101007.4 12.3 6.6
2018-Jan-12 01:00N 42°18' W 083°12'0 0.0 160 / 121008.4 11.4 7.2
2018-Jan-12 00:00N 42°18' W 083°12'0 0.0 180 / 71009.1 11.3 4.7
2018-Jan-11 23:00N 42°18' W 083°12'0 0.0 170 / 121009.1 11.2 5.3
2018-Jan-11 22:00N 42°18' W 083°12'4 4.4 180 / 91009.4 11.6 6.4
2018-Jan-11 21:00N 42°18' W 083°06'0 0.0 170 / 41010.1 9.8 6.9
2018-Jan-11 20:00N 42°18' W 083°06'4 4.4 170 / 181009.8 10.9 0.7
2018-Jan-11 19:00N 42°18' W 083°00'0 0.0 180 / 151010.8 12.8 0.6
2018-Jan-11 18:00N 42°18' W 083°00'7 7.5 180 / 171011.8 12.0 1.1
2018-Jan-11 17:00N 42°24' W 082°54'1110.7 180 / 251012.1 10.8 0.6
2018-Jan-11 16:00N 42°30' W 082°42'7 7.5 170 / 251012.5 7.0 0.4
2018-Jan-11 15:00N 42°36' W 082°36'7 7.4 180 / 311013.5 8.9 0.2
2018-Jan-11 14:00N 42°42' W 082°30'6 6.0 180 / 171013.3 7.6 0.2
2018-Jan-11 13:00N 42°48' W 082°30'1312.8 160 / 151013.3 8.7 0.3
2018-Jan-11 12:00N 43°00' W 082°24'6 6.0 170 / 161013.0 8.9 0.9
2018-Jan-11 11:00N 43°06' W 082°24'6 6.0 160 / 201012.0 6.3 0.3
2018-Jan-11 10:00N 43°12' W 082°24'0 0.0 160 / 201012.3 3.9 0.4
2018-Jan-11 09:00N 43°12' W 082°24'0 0.0 160 / 201012.3 4.5 0.4
2018-Jan-11 08:00N 43°12' W 082°24'0 0.0 160 / 201012.7 4.5 0.6
2018-Jan-11 07:00N 43°12' W 082°24'0 0.0 170 / 201012.0 4.8 0.3
2018-Jan-11 06:00N 43°12' W 082°24'0 0.0 170 / 201012.0 4.4 0.5
2018-Jan-11 05:00N 43°12' W 082°24'0 0.0 160 / 181012.3 4.4 0.4
2018-Jan-11 04:00N 43°12' W 082°24'0 0.0 160 / 211012.3 4.6 0.3
2018-Jan-11 03:00N 43°12' W 082°24'0 0.0 170 / 221012.3 4.2 0.7
2018-Jan-11 02:00N 43°12' W 082°24'0 0.0 170 / 231012.3 4.3 0.2
2018-Jan-11 01:00N 43°12' W 082°24'0 0.0 170 / 221012.7 3.7 0.2
2018-Jan-11 00:00N 43°12' W 082°24'0 0.0 180 / 231013.0 3.8 0.4
2018-Jan-10 23:00N 43°12' W 082°24'0 0.0 170 / 201013.0 2.8 0.5
2018-Jan-10 22:00N 43°12' W 082°24'6 6.0 160 / 231012.3 2.5 0.3
2018-Jan-10 21:00N 43°18' W 082°24'6 6.0 180 / 191013.3 2.3 0.4
2018-Jan-10 20:00N 43°12' W 082°24'0 0.0 180 / 151013.7 2.1 0.3
2018-Jan-10 19:00N 43°12' W 082°24'0 0.0 180 / 191013.7 1.2 0.7
2018-Jan-10 18:00N 43°12' W 082°24'6 6.0 160 / 191015.0 0.5 0.2
2018-Jan-10 17:00N 43°18' W 082°24'0 0.0 160 / 221016.4 -0.2 0.2
2018-Jan-10 16:00N 43°18' W 082°24'7 7.4 160 / 271016.7 -0.5 0.2
2018-Jan-10 15:00N 43°24' W 082°30'0 0.0 150 / 241018.1 -1.5 0.3
2018-Jan-10 14:00N 43°24' W 082°30'0 0.0 160 / 221019.4 -1.3 0.6
2018-Jan-10 13:00N 43°24' W 082°30'0 0.0 150 / 241019.4 -1.9 0.2
2018-Jan-10 12:00N 43°24' W 082°30'0 0.0 150 / 241020.4 -2.0 0.5
2018-Jan-10 11:00N 43°24' W 082°30'0 0.0 160 / 201021.5 -2.1 0.5
2018-Jan-10 10:00N 43°24' W 082°30'0 0.0 160 / 201022.1 -2.1 0.4
2018-Jan-10 09:00N 43°24' W 082°30'0 0.0 160 / 191023.2 -1.6 0.3
2018-Jan-10 08:00N 43°24' W 082°30'0 0.0 150 / 201023.8 -1.4 0.5
2018-Jan-10 07:00N 43°24' W 082°30'0 0.0 170 / 221024.5 -1.7 0.3
2018-Jan-10 06:00N 43°24' W 082°30'0 0.0 160 / 171025.5 -1.6 0.5
2018-Jan-10 05:00N 43°24' W 082°30'0 0.0 170 / 191025.9 -1.9 0.3
2018-Jan-10 04:00N 43°24' W 082°30'0 0.0 160 / 151026.5 -1.7 0.4
2018-Jan-10 03:00N 43°24' W 082°30'0 0.0 140 / 171025.9 -1.6 0.7
2018-Jan-10 02:00N 43°24' W 082°30'0 0.0 140 / 131026.2 -1.5 0.4
2018-Jan-10 01:00N 43°24' W 082°30'0 0.0 130 / 121026.5 -1.5 0.3
2018-Jan-10 00:00N 43°24' W 082°30'0 0.0 120 / 91026.5 -1.3 0.4
2018-Jan-09 23:00N 43°24' W 082°30'0 0.0 100 / 61026.5 -1.5 0.4
2018-Jan-09 22:00N 43°24' W 082°30'0 0.0 100 / 61026.5 -1.6 0.4
2018-Jan-09 21:00N 43°24' W 082°30'0 0.0 080 / 61025.9 -1.6 0.3
2018-Jan-09 20:00N 43°24' W 082°30'0 0.0 350 / 31025.2 -0.9 0.4
2018-Jan-09 19:00N 43°24' W 082°30'0 0.0 300 / 81025.2 -1.5 0.3
2018-Jan-09 18:00N 43°24' W 082°30'0 0.0 300 / 101025.2 -1.8 0.3
2018-Jan-09 17:00N 43°24' W 082°30'0 0.0 280 / 101025.5 -1.9 0.3
2018-Jan-09 16:00N 43°24' W 082°30'0 0.0 260 / 101025.5 -2.4 0.3
2018-Jan-09 15:00N 43°24' W 082°30'0 0.0 270 / 101024.8 -2.7 0.3
2018-Jan-09 14:00N 43°24' W 082°30'0 0.0 270 / 121023.8 -3.5 0.3
2018-Jan-09 13:00N 43°24' W 082°30'4 4.4 270 / 111022.8 -3.4 0.7
2018-Jan-09 12:00N 43°24' W 082°24'1212.0 280 / 131021.8 -2.8 0.3
2018-Jan-09 11:00N 43°36' W 082°24'1212.0 280 / 131020.8 -1.9 1.6
2018-Jan-09 10:00N 43°48' W 082°24'1312.8 310 / 141019.8 -1.1 2.1
2018-Jan-09 09:00N 44°00' W 082°30'1312.8 330 / 191018.8 -1.1 2.6
2018-Jan-09 08:00N 44°12' W 082°36'1414.2 330 / 191018.1 -1.3 1.3
2018-Jan-09 07:00N 44°18' W 082°54'1514.7 330 / 221017.4 -1.5 1.3
2018-Jan-09 06:00N 44°30' W 083°06'1212.0 320 / 161016.4 -0.8 0.4
2018-Jan-09 05:00N 44°42' W 083°06'1212.0 320 / 221015.4 -1.2 1.0
2018-Jan-09 04:00N 44°54' W 083°06'1212.0 310 / 231013.7 -0.7 2.1
2018-Jan-09 03:00N 45°06' W 083°06'1312.7 300 / 231012.3 -0.4 0.9
2018-Jan-09 02:00N 45°18' W 083°12'1010.3 260 / 161011.3 0.2 2.4
2018-Jan-09 01:00N 45°24' W 083°24'1414.0 290 / 241010.6 1.2 2.7
2018-Jan-09 00:00N 45°30' W 083°42'1414.0 290 / 271010.3 0.8 2.8
2018-Jan-08 23:00N 45°36' W 084°00'1312.7 270 / 231009.3 0.5 1.9
2018-Jan-08 22:00N 45°48' W 084°06'1010.3 260 / 301005.5 0.4 2.1
2018-Jan-08 21:00N 45°54' W 083°54'1312.7 250 / 311003.9 -0.0 0.9
2018-Jan-08 20:00N 46°06' W 084°00'7 7.3 230 / 181005.5 -1.8 0.3
2018-Jan-08 19:00N 46°12' W 084°06'7 7.3 230 / 161004.9 -1.6 0.3
2018-Jan-08 18:00N 46°18' W 084°12'6 6.0 240 / 71005.2 -1.8 0.2
2018-Jan-08 17:00N 46°24' W 084°12'0 0.0 230 / 151004.5 -2.2 0.2
2018-Jan-08 16:00N 46°24' W 084°12'7 7.3 230 / 141005.2 -2.7 0.6
2018-Jan-08 15:00N 46°30' W 084°18'0 0.0 220 / 81004.5 -3.3 0.3
2018-Jan-08 14:00N 46°30' W 084°18'0 0.0 240 / 81004.9 -3.4 0.8
2018-Jan-08 13:00N 46°30' W 084°18'0 0.0 240 / 101004.9 -3.7 0.5
2018-Jan-08 12:00N 46°30' W 084°18'0 0.0 240 / 81004.9 -4.3 0.4
2018-Jan-08 11:00N 46°30' W 084°18'0 0.0 260 / 71004.9 -4.9 0.5
2018-Jan-08 10:00N 46°30' W 084°18'0 0.0 270 / 41004.5 -5.2 0.4
2018-Jan-08 09:00N 46°30' W 084°18'0 0.0 140 / 11005.2 -5.5 0.5
2018-Jan-08 08:00N 46°30' W 084°18'0 0.0 110 / 11005.5 -5.9 0.3
2018-Jan-08 07:00N 46°30' W 084°18'0 0.0 120 / 41005.5 -6.2 0.3
2018-Jan-08 06:00N 46°30' W 084°18'0 0.0 060 / 21006.2 -6.2 0.4
2018-Jan-08 05:00N 46°30' W 084°18'0 0.0 090 / 31006.6 -5.8 0.7
2018-Jan-08 04:00N 46°30' W 084°18'0 0.0 110 / 51007.2 -5.9 0.4
2018-Jan-08 03:00N 46°30' W 084°18'0 0.0 160 / 31007.6 -5.8 0.7
2018-Jan-08 02:00N 46°30' W 084°18'0 0.0 130 / 31007.9 -5.8 0.7
2018-Jan-08 01:00N 46°30' W 084°18'4 4.1 160 / 21008.6 -6.0 0.2
2018-Jan-08 00:00N 46°30' W 084°24'4 4.1 210 / 21009.1 -5.9 0.2
2018-Jan-07 23:00N 46°30' W 084°30'4 4.1 310 / 41009.1 -5.8 0.2
2018-Jan-07 22:00N 46°30' W 084°36'0 0.0 250 / 181008.5 -5.5 0.3
2018-Jan-07 21:00N 46°30' W 084°36'0 0.0 240 / 171008.5 -5.5 0.2
2018-Jan-07 20:00N 46°30' W 084°36'0 0.0 240 / 201008.8 -5.5 0.2
2018-Jan-07 19:00N 46°30' W 084°36'0 0.0 240 / 211008.8 -5.2 0.5
2018-Jan-07 18:00N 46°30' W 084°36'0 0.0 250 / 211009.5 -5.2 0.3
2018-Jan-07 17:00N 46°30' W 084°36'4 4.1 230 / 201010.5 -4.5 0.3
2018-Jan-07 16:00N 46°30' W 084°42'0 0.0 130 / 151011.9 -7.3 0.2
2018-Jan-07 15:00N 46°30' W 084°42'0 0.0 150 / 161012.2 -7.9 0.6
2018-Jan-07 14:00N 46°30' W 084°42'0 0.0 140 / 221012.5 -8.6 0.6
2018-Jan-07 13:00N 46°30' W 084°42'0 0.0 140 / 211014.2 -9.3 0.3
2018-Jan-07 12:00N 46°30' W 084°42'0 0.0 140 / 191015.9 -9.9 0.3
2018-Jan-07 11:00N 46°30' W 084°42'0 0.0 140 / 171017.3 -10.0 0.3
2018-Jan-07 10:00N 46°30' W 084°42'0 0.0 150 / 191017.9 -10.7 0.3
2018-Jan-07 09:00N 46°30' W 084°42'0 0.0 140 / 221019.0 -11.1 0.2
2018-Jan-07 08:00N 46°30' W 084°42'0 0.0 120 / 241019.6 -12.9 0.5
2018-Jan-07 07:00N 46°30' W 084°42'0 0.0 110 / 241021.0 -14.1 0.3
2018-Jan-07 06:00N 46°30' W 084°42'0 0.0 110 / 261022.4 -15.3 0.6
2018-Jan-07 05:00N 46°30' W 084°42'6 6.0 110 / 251024.0 -15.7 0.2
2018-Jan-07 04:00N 46°36' W 084°42'0 0.0 120 / 261025.1 -16.0 0.3
2018-Jan-07 03:00N 46°36' W 084°42'0 0.0 130 / 211027.1 -16.3 0.3
2018-Jan-07 02:00N 46°36' W 084°42'6 6.0 130 / 171028.4 -17.3 0.2
2018-Jan-07 01:00N 46°30' W 084°42'0 0.0 120 / 141029.8 -17.3 0.3
2018-Jan-07 00:00N 46°30' W 084°42'7 7.3 190 / 121030.8 -16.3 0.3
2018-Jan-06 23:00N 46°36' W 084°48'1514.6 190 / 151030.1 -15.4 0.4
2018-Jan-06 22:00N 46°48' W 085°00'1413.7 190 / 141030.1 -14.8 0.3
2018-Jan-06 21:00N 46°54' W 085°18'8 8.2 110 / 131029.8 -14.3 0.8
2018-Jan-06 20:00N 46°54' W 085°30'8113.5 180 / 41030.8 -13.3 2.6
2018-Jan-06 14:00N 47°18' W 087°24'1312.7 360 / 111032.5 -13.1 1.9
2018-Jan-06 13:00N 47°06' W 087°30'6 6.0 320 / 181031.8 -13.3 1.0
2018-Jan-06 12:00N 47°00' W 087°30'1312.7 320 / 171032.2 -13.4 1.5
2018-Jan-06 11:00N 46°48' W 087°36'1010.2 310 / 181031.8 -13.6 1.5
2018-Jan-06 10:00N 46°42' W 087°24'6 6.0 340 / 221030.5 -12.2 1.5
2018-Jan-06 09:00N 46°36' W 087°24'0 0.0 290 / 101031.8 -14.8 0.4
2018-Jan-06 08:00N 46°36' W 087°24'0 0.0 310 / 111031.5 -14.7 0.5
2018-Jan-06 07:00N 46°36' W 087°24'0 0.0 310 / 81030.8 -13.0 0.5
2018-Jan-06 06:00N 46°36' W 087°24'0 0.0 290 / 81030.5 -13.1 0.7
2018-Jan-06 05:00N 46°36' W 087°24'0 0.0 300 / 81030.1 -13.4 0.8
2018-Jan-06 04:00N 46°36' W 087°24'0 0.0 350 / 61030.1 -13.0 0.7
2018-Jan-06 03:00N 46°36' W 087°24'0 0.0 320 / 81030.1 -13.0 0.4
2018-Jan-06 02:00N 46°36' W 087°24'0 0.0 290 / 121029.8 -14.8 0.6
2018-Jan-06 01:00N 46°36' W 087°24'0 0.0 300 / 101029.8 -15.0 0.4
2018-Jan-06 00:00N 46°36' W 087°24'0 0.0 300 / 131029.8 -15.3 0.7
2018-Jan-05 23:00N 46°36' W 087°24'0 0.0 280 / 111029.8 -15.3 0.8
2018-Jan-05 22:00N 46°36' W 087°24'0 0.0 310 / 101029.8 -14.9 0.3
2018-Jan-05 21:00N 46°36' W 087°24'0 0.0 300 / 121029.1 -14.8 0.3
2018-Jan-05 20:00N 46°36' W 087°24'0 0.0 300 / 141029.1 -14.6 0.6
2018-Jan-05 19:00N 46°36' W 087°24'0 0.0 330 / 151028.4 -13.8 0.7
2018-Jan-05 18:00N 46°36' W 087°24'0 0.0 310 / 101028.4 -13.5 0.5
2018-Jan-05 17:00N 46°36' W 087°24'0 0.0 310 / 91028.8 -13.7 0.5
2018-Jan-05 16:00N 46°36' W 087°24'0 0.0 030 / 31028.4 -13.3 0.8
2018-Jan-05 15:00N 46°36' W 087°24'0 0.0 360 / 121027.4 -14.2 0.4
2018-Jan-05 14:00N 46°36' W 087°24'0 0.0 350 / 121026.8 -14.1 0.5
2018-Jan-05 13:00N 46°36' W 087°24'0 0.0 020 / 111026.4 -14.3 0.6
2018-Jan-05 12:00N 46°36' W 087°24'0 0.0 360 / 81025.7 -13.9 0.5
2018-Jan-05 11:00N 46°36' W 087°24'0 0.0 010 / 91025.4 -13.6 0.6
2018-Jan-05 10:00N 46°36' W 087°24'0 0.0 030 / 131025.1 -14.1 0.6
2018-Jan-05 09:00N 46°36' W 087°24'0 0.0 340 / 81025.1 -13.4 0.7
2018-Jan-05 08:00N 46°36' W 087°24'0 0.0 260 / 131025.1 -14.8 0.6
2018-Jan-05 07:00N 46°36' W 087°24'0 0.0 340 / 81024.4 -13.1 0.6
2018-Jan-05 06:00N 46°36' W 087°24'0 0.0 1024.4 -13.3 1.1
2018-Jan-05 05:00N 46°36' W 087°24'0 0.0 300 / 81024.4 -14.1 0.7
2018-Jan-05 04:00N 46°36' W 087°24'0 0.0 280 / 91024.4 -13.8 0.8
2018-Jan-05 03:00N 46°36' W 087°24'0 0.0 310 / 101024.7 -14.5 0.8
2018-Jan-05 02:00N 46°36' W 087°24'0 0.0 280 / 121024.7 -14.6 1.2
2018-Jan-05 01:00N 46°36' W 087°24'0 0.0 280 / 101024.7 -14.8 1.1
2018-Jan-05 00:00N 46°36' W 087°24'0 0.0 300 / 111025.1 -14.7 0.8
2018-Jan-04 23:00N 46°36' W 087°24'0 0.0 310 / 111025.1 -13.7 1.1
2018-Jan-04 22:00N 46°36' W 087°24'0 0.0 290 / 91025.1 -14.3 0.8
2018-Jan-04 21:00N 46°36' W 087°24'0 0.0 280 / 101025.1 -13.7 0.8
2018-Jan-04 20:00N 46°36' W 087°24'0 0.0 290 / 121024.7 -13.6 0.9
2018-Jan-04 19:00N 46°36' W 087°24'0 0.0 340 / 91024.4 -13.2 1.0
2018-Jan-04 18:00N 46°36' W 087°24'7 7.3 340 / 131024.0 -12.7 0.6
2018-Jan-04 17:00N 46°42' W 087°18'1818.0 340 / 171025.1 -12.9 2.2
2018-Jan-04 16:00N 47°00' W 087°18'1212.0 340 / 191025.7 -14.0 1.6
2018-Jan-04 15:00N 47°12' W 087°18'1212.0 1026.1 -14.7 2.2
2018-Jan-04 14:00N 47°24' W 087°18'1818.0 010 / 141026.1 -15.9 2.9
2018-Jan-04 13:00N 47°42' W 087°18'1212.1 020 / 141026.1 -16.4 2.7
2018-Jan-04 12:00N 47°42' W 087°00'1212.1 320 / 291024.7 -16.5 2.9
2018-Jan-04 11:00N 47°42' W 086°42'7510.7 020 / 271024.4 -17.4 3.0
2018-Jan-04 04:00N 47°12' W 085°00'1312.7 360 / 221019.0 -20.8 2.7
2018-Jan-04 03:00N 47°00' W 084°54'1212.0 010 / 201017.3 -17.2 1.2
2018-Jan-04 02:00N 46°48' W 084°54'1312.7 340 / 291015.6 -15.4 0.4
2018-Jan-04 01:00N 46°36' W 085°00'0 0.0 1015.6 -13.3 0.6
2018-Jan-04 00:00N 46°36' W 085°00'0 0.0 360 / 271014.6 -12.1 0.7
2018-Jan-03 23:00N 46°36' W 085°00'0 0.0 340 / 231014.9 -12.1 1.0
2018-Jan-03 22:00N 46°36' W 085°00'0 0.0 320 / 271013.2 -11.6 0.8
2018-Jan-03 21:00N 46°36' W 085°00'0 0.0 330 / 301011.9 -11.0 0.6
2018-Jan-03 20:00N 46°36' W 085°00'0 0.0 320 / 281011.2 -10.9 0.7
2018-Jan-03 19:00N 46°36' W 085°00'0 0.0 330 / 281010.2 -11.3 0.7
2018-Jan-03 18:00N 46°36' W 085°00'0 0.0 320 / 291009.5 -10.9 0.5
2018-Jan-03 17:00N 46°36' W 085°00'0 0.0 320 / 271009.5 -9.7 0.4
2018-Jan-03 16:00N 46°36' W 085°00'0 0.0 320 / 281008.8 -9.1 0.5
2018-Jan-03 15:00N 46°36' W 085°00'6 6.0 320 / 291007.5 -7.9 0.5
2018-Jan-03 14:00N 46°42' W 085°00'0 0.0 230 / 91007.5 -8.6 0.5
2018-Jan-03 13:00N 46°42' W 085°00'0 0.0 250 / 171007.5 -9.4 0.8
2018-Jan-03 12:00N 46°42' W 085°00'0 0.0 220 / 171007.8 -10.4 0.6
2018-Jan-03 11:00N 46°42' W 085°00'0 0.0 220 / 171007.8 -10.0 0.5
2018-Jan-03 10:00N 46°42' W 085°00'6 6.0 210 / 191007.8 -10.6 0.5
2018-Jan-03 09:00N 46°36' W 085°00'6 6.0 220 / 181008.1 -10.0 0.5
2018-Jan-03 08:00N 46°42' W 085°00'0 0.0 230 / 191008.1 -10.3 0.5
2018-Jan-03 07:00N 46°42' W 085°00'0 0.0 210 / 191008.5 -10.4 0.5
2018-Jan-03 06:00N 46°42' W 085°00'0 0.0 230 / 191008.8 -10.5 0.6
2018-Jan-03 05:00N 46°42' W 085°00'0 0.0 220 / 181009.5 -10.6 0.6
2018-Jan-03 04:00N 46°42' W 085°00'0 0.0 210 / 181010.2 -10.6 0.6
2018-Jan-03 03:00N 46°42' W 085°00'0 0.0 230 / 181010.2 -10.3 0.7
2018-Jan-03 02:00N 46°42' W 085°00'0 0.0 230 / 201010.5 -10.6 0.9
2018-Jan-03 01:00N 46°42' W 085°00'0 0.0 220 / 211011.5 -9.8 1.0
2018-Jan-03 00:00N 46°42' W 085°00'0 0.0 220 / 201011.9 -10.0 1.0
2018-Jan-02 23:00N 46°42' W 085°00'0 0.0 220 / 211012.5 -10.3 1.0
2018-Jan-02 22:00N 46°42' W 085°00'0 0.0 200 / 191013.2 -9.5 0.9
2018-Jan-02 21:00N 46°42' W 085°00'6 6.0 210 / 211013.2 -9.8 0.7
2018-Jan-02 20:00N 46°36' W 085°00'0 0.0 230 / 221013.9 -9.8 0.8
2018-Jan-02 19:00N 46°36' W 085°00'6 6.0 220 / 221014.210.8 -9.6 0.7
2018-Jan-02 18:00N 46°42' W 085°00'0 0.0 230 / 271014.2 -10.3 0.6
2018-Jan-02 17:00N 46°42' W 085°00'6 6.0 230 / 251015.2 -10.8 0.7
2018-Jan-02 16:00N 46°36' W 085°00'6 6.0 240 / 251016.3 -11.5 0.9
2018-Jan-02 15:00N 46°42' W 085°00'   230 / 261016.6 -11.8 0.8

Dump ship's entire track history